sensor_id;sensor_type;location;lat;lon;timestamp;temperature;humidity
7704;DHT22;3894;49.700;10.770;2022-11-18T00:01:11;8.00;99.90
7704;DHT22;3894;49.700;10.770;2022-11-18T00:03:38;8.00;99.90
7704;DHT22;3894;49.700;10.770;2022-11-18T00:06:04;8.00;99.90
7704;DHT22;3894;49.700;10.770;2022-11-18T00:08:33;8.00;99.90
7704;DHT22;3894;49.700;10.770;2022-11-18T00:11:07;8.00;99.90
7704;DHT22;3894;49.700;10.770;2022-11-18T00:13:33;7.90;99.90
7704;DHT22;3894;49.700;10.770;2022-11-18T00:16:17;7.90;99.90
7704;DHT22;3894;49.700;10.770;2022-11-18T00:18:43;7.90;99.90
7704;DHT22;3894;49.700;10.770;2022-11-18T00:21:10;7.90;99.90
7704;DHT22;3894;49.700;10.770;2022-11-18T00:23:37;8.00;99.90
7704;DHT22;3894;49.700;10.770;2022-11-18T00:26:09;8.00;99.90
7704;DHT22;3894;49.700;10.770;2022-11-18T00:28:36;7.90;99.90
7704;DHT22;3894;49.700;10.770;2022-11-18T00:31:19;8.00;99.90
7704;DHT22;3894;49.700;10.770;2022-11-18T00:33:45;7.90;99.90
7704;DHT22;3894;49.700;10.770;2022-11-18T00:36:11;7.90;99.90
7704;DHT22;3894;49.700;10.770;2022-11-18T00:38:38;7.90;99.90
7704;DHT22;3894;49.700;10.770;2022-11-18T00:41:09;7.90;99.90
7704;DHT22;3894;49.700;10.770;2022-11-18T00:43:36;7.80;99.90
7704;DHT22;3894;49.700;10.770;2022-11-18T00:46:02;7.80;99.90
7704;DHT22;3894;49.700;10.770;2022-11-18T00:48:28;7.90;99.90
7704;DHT22;3894;49.700;10.770;2022-11-18T00:50:56;7.80;99.90
7704;DHT22;3894;49.700;10.770;2022-11-18T00:53:23;7.80;99.90
7704;DHT22;3894;49.700;10.770;2022-11-18T00:55:49;7.80;99.90
7704;DHT22;3894;49.700;10.770;2022-11-18T00:58:15;7.80;99.90
7704;DHT22;3894;49.700;10.770;2022-11-18T01:00:43;7.80;99.90
7704;DHT22;3894;49.700;10.770;2022-11-18T01:03:11;7.80;99.90
7704;DHT22;3894;49.700;10.770;2022-11-18T01:05:37;7.80;99.90
7704;DHT22;3894;49.700;10.770;2022-11-18T01:08:04;7.80;99.90
7704;DHT22;3894;49.700;10.770;2022-11-18T01:10:30;7.70;99.90
7704;DHT22;3894;49.700;10.770;2022-11-18T01:12:55;7.70;99.90
7704;DHT22;3894;49.700;10.770;2022-11-18T01:15:41;7.70;99.90
7704;DHT22;3894;49.700;10.770;2022-11-18T01:18:07;7.70;99.90
7704;DHT22;3894;49.700;10.770;2022-11-18T01:20:33;7.70;99.90
7704;DHT22;3894;49.700;10.770;2022-11-18T01:22:59;7.70;99.90
7704;DHT22;3894;49.700;10.770;2022-11-18T01:25:25;7.70;99.90
7704;DHT22;3894;49.700;10.770;2022-11-18T01:27:51;7.70;99.90
7704;DHT22;3894;49.700;10.770;2022-11-18T01:30:16;7.70;99.90
7704;DHT22;3894;49.700;10.770;2022-11-18T01:32:43;7.80;99.90
7704;DHT22;3894;49.700;10.770;2022-11-18T01:35:09;7.80;99.90
7704;DHT22;3894;49.700;10.770;2022-11-18T01:37:34;7.70;99.90
7704;DHT22;3894;49.700;10.770;2022-11-18T01:40:00;7.70;99.90
7704;DHT22;3894;49.700;10.770;2022-11-18T01:42:26;7.70;99.90
7704;DHT22;3894;49.700;10.770;2022-11-18T01:45:14;7.70;99.90
7704;DHT22;3894;49.700;10.770;2022-11-18T01:47:57;7.70;99.90
7704;DHT22;3894;49.700;10.770;2022-11-18T01:50:24;7.70;99.90
7704;DHT22;3894;49.700;10.770;2022-11-18T01:52:52;7.70;99.90
7704;DHT22;3894;49.700;10.770;2022-11-18T01:55:24;7.60;99.90
7704;DHT22;3894;49.700;10.770;2022-11-18T01:57:51;7.60;99.90
7704;DHT22;3894;49.700;10.770;2022-11-18T02:00:19;7.60;99.90
7704;DHT22;3894;49.700;10.770;2022-11-18T02:02:44;7.60;99.90
7704;DHT22;3894;49.700;10.770;2022-11-18T02:05:10;7.60;99.90
7704;DHT22;3894;49.700;10.770;2022-11-18T02:07:39;7.60;99.90
7704;DHT22;3894;49.700;10.770;2022-11-18T02:10:07;7.60;99.90
7704;DHT22;3894;49.700;10.770;2022-11-18T02:12:34;7.60;99.90
7704;DHT22;3894;49.700;10.770;2022-11-18T02:15:01;7.60;99.90
7704;DHT22;3894;49.700;10.770;2022-11-18T02:23:20;7.60;99.90
7704;DHT22;3894;49.700;10.770;2022-11-18T02:28:57;7.50;99.90
7704;DHT22;3894;49.700;10.770;2022-11-18T02:31:31;7.50;99.90
7704;DHT22;3894;49.700;10.770;2022-11-18T02:34:08;7.50;99.90
7704;DHT22;3894;49.700;10.770;2022-11-18T02:37:37;7.50;99.90
7704;DHT22;3894;49.700;10.770;2022-11-18T02:39:57;7.50;99.90
7704;DHT22;3894;49.700;10.770;2022-11-18T02:42:25;7.40;99.90
7704;DHT22;3894;49.700;10.770;2022-11-18T02:44:57;7.40;99.90
7704;DHT22;3894;49.700;10.770;2022-11-18T02:47:26;7.40;99.90
7704;DHT22;3894;49.700;10.770;2022-11-18T02:49:57;7.30;99.90
7704;DHT22;3894;49.700;10.770;2022-11-18T02:52:25;7.30;99.90
7704;DHT22;3894;49.700;10.770;2022-11-18T02:54:53;7.30;99.90
7704;DHT22;3894;49.700;10.770;2022-11-18T02:57:19;7.30;99.90
7704;DHT22;3894;49.700;10.770;2022-11-18T02:59:46;7.30;99.90
7704;DHT22;3894;49.700;10.770;2022-11-18T03:02:16;7.30;99.90
7704;DHT22;3894;49.700;10.770;2022-11-18T03:04:44;7.30;99.90
7704;DHT22;3894;49.700;10.770;2022-11-18T03:09:46;7.30;99.90
7704;DHT22;3894;49.700;10.770;2022-11-18T03:12:45;7.30;99.90
7704;DHT22;3894;49.700;10.770;2022-11-18T03:18:20;7.30;99.90
7704;DHT22;3894;49.700;10.770;2022-11-18T03:20:52;7.40;99.90
7704;DHT22;3894;49.700;10.770;2022-11-18T03:23:27;7.40;99.90
7704;DHT22;3894;49.700;10.770;2022-11-18T03:25:56;7.40;99.90
7704;DHT22;3894;49.700;10.770;2022-11-18T03:28:45;7.40;99.90
7704;DHT22;3894;49.700;10.770;2022-11-18T03:33:47;7.40;99.90
7704;DHT22;3894;49.700;10.770;2022-11-18T03:36:15;7.40;99.90
7704;DHT22;3894;49.700;10.770;2022-11-18T03:38:49;7.40;99.90
7704;DHT22;3894;49.700;10.770;2022-11-18T03:41:17;7.40;99.90
7704;DHT22;3894;49.700;10.770;2022-11-18T03:43:47;7.40;99.90
7704;DHT22;3894;49.700;10.770;2022-11-18T03:46:25;7.40;99.90
7704;DHT22;3894;49.700;10.770;2022-11-18T03:48:54;7.40;99.90
7704;DHT22;3894;49.700;10.770;2022-11-18T03:51:29;7.40;99.90
7704;DHT22;3894;49.700;10.770;2022-11-18T03:54:02;7.40;99.90
7704;DHT22;3894;49.700;10.770;2022-11-18T03:56:35;7.40;99.90
7704;DHT22;3894;49.700;10.770;2022-11-18T04:00:24;7.40;99.90
7704;DHT22;3894;49.700;10.770;2022-11-18T04:02:20;7.40;99.90
7704;DHT22;3894;49.700;10.770;2022-11-18T04:04:48;7.40;99.90
7704;DHT22;3894;49.700;10.770;2022-11-18T04:07:26;7.40;99.90
7704;DHT22;3894;49.700;10.770;2022-11-18T04:10:12;7.50;99.90
7704;DHT22;3894;49.700;10.770;2022-11-18T04:12:43;7.50;99.90
7704;DHT22;3894;49.700;10.770;2022-11-18T04:15:10;7.50;99.90
7704;DHT22;3894;49.700;10.770;2022-11-18T04:17:35;7.50;99.90
7704;DHT22;3894;49.700;10.770;2022-11-18T04:20:01;7.50;99.90
7704;DHT22;3894;49.700;10.770;2022-11-18T04:22:26;7.50;99.90
7704;DHT22;3894;49.700;10.770;2022-11-18T04:24:52;7.50;99.90
7704;DHT22;3894;49.700;10.770;2022-11-18T04:27:17;7.40;99.90
7704;DHT22;3894;49.700;10.770;2022-11-18T04:29:43;7.40;99.90
7704;DHT22;3894;49.700;10.770;2022-11-18T04:32:09;7.40;99.90
7704;DHT22;3894;49.700;10.770;2022-11-18T04:34:34;7.40;99.90
7704;DHT22;3894;49.700;10.770;2022-11-18T04:37:00;7.40;99.90
7704;DHT22;3894;49.700;10.770;2022-11-18T04:39:25;7.40;99.90
7704;DHT22;3894;49.700;10.770;2022-11-18T04:41:51;7.40;99.90
7704;DHT22;3894;49.700;10.770;2022-11-18T04:44:30;7.40;99.90
7704;DHT22;3894;49.700;10.770;2022-11-18T04:46:57;7.40;99.90
7704;DHT22;3894;49.700;10.770;2022-11-18T04:49:24;7.40;99.90
7704;DHT22;3894;49.700;10.770;2022-11-18T04:51:50;7.40;99.90
7704;DHT22;3894;49.700;10.770;2022-11-18T04:54:17;7.40;99.90
7704;DHT22;3894;49.700;10.770;2022-11-18T04:56:43;7.40;99.90
7704;DHT22;3894;49.700;10.770;2022-11-18T04:59:11;7.40;99.90
7704;DHT22;3894;49.700;10.770;2022-11-18T05:01:36;7.50;99.90
7704;DHT22;3894;49.700;10.770;2022-11-18T05:04:03;7.50;99.90
7704;DHT22;3894;49.700;10.770;2022-11-18T05:06:30;7.50;99.90
7704;DHT22;3894;49.700;10.770;2022-11-18T05:08:57;7.50;99.90
7704;DHT22;3894;49.700;10.770;2022-11-18T05:11:24;7.50;99.90
7704;DHT22;3894;49.700;10.770;2022-11-18T05:14:26;7.50;99.90
7704;DHT22;3894;49.700;10.770;2022-11-18T05:16:52;7.50;99.90
7704;DHT22;3894;49.700;10.770;2022-11-18T05:19:17;7.50;99.90
7704;DHT22;3894;49.700;10.770;2022-11-18T05:21:43;7.50;99.90
7704;DHT22;3894;49.700;10.770;2022-11-18T05:24:09;7.50;99.90
7704;DHT22;3894;49.700;10.770;2022-11-18T05:26:34;7.50;99.90
7704;DHT22;3894;49.700;10.770;2022-11-18T05:29:00;7.50;99.90
7704;DHT22;3894;49.700;10.770;2022-11-18T05:31:25;7.50;99.90
7704;DHT22;3894;49.700;10.770;2022-11-18T05:33:51;7.50;99.90
7704;DHT22;3894;49.700;10.770;2022-11-18T05:36:18;7.50;99.90
7704;DHT22;3894;49.700;10.770;2022-11-18T05:38:44;7.50;99.90
7704;DHT22;3894;49.700;10.770;2022-11-18T05:41:10;7.50;99.90
7704;DHT22;3894;49.700;10.770;2022-11-18T05:43:56;7.50;99.90
7704;DHT22;3894;49.700;10.770;2022-11-18T05:46:22;7.50;99.90
7704;DHT22;3894;49.700;10.770;2022-11-18T05:48:48;7.50;99.90
7704;DHT22;3894;49.700;10.770;2022-11-18T05:51:13;7.50;99.90
7704;DHT22;3894;49.700;10.770;2022-11-18T05:53:39;7.50;99.90
7704;DHT22;3894;49.700;10.770;2022-11-18T05:58:36;7.50;99.90
7704;DHT22;3894;49.700;10.770;2022-11-18T06:01:04;7.50;99.90
7704;DHT22;3894;49.700;10.770;2022-11-18T06:03:34;7.40;99.90
7704;DHT22;3894;49.700;10.770;2022-11-18T06:06:02;7.40;99.90
7704;DHT22;3894;49.700;10.770;2022-11-18T06:08:34;7.40;99.90
7704;DHT22;3894;49.700;10.770;2022-11-18T06:11:01;7.40;99.90
7704;DHT22;3894;49.700;10.770;2022-11-18T06:13:34;7.40;99.90
7704;DHT22;3894;49.700;10.770;2022-11-18T06:16:00;7.40;99.90
7704;DHT22;3894;49.700;10.770;2022-11-18T06:18:27;7.40;99.90
7704;DHT22;3894;49.700;10.770;2022-11-18T06:20:56;7.40;99.90
7704;DHT22;3894;49.700;10.770;2022-11-18T06:23:24;7.40;99.90
7704;DHT22;3894;49.700;10.770;2022-11-18T06:25:50;7.40;99.90
7704;DHT22;3894;49.700;10.770;2022-11-18T06:28:16;7.40;99.90
7704;DHT22;3894;49.700;10.770;2022-11-18T06:30:43;7.30;99.90
7704;DHT22;3894;49.700;10.770;2022-11-18T06:33:08;7.30;99.90
7704;DHT22;3894;49.700;10.770;2022-11-18T06:35:34;7.40;99.90
7704;DHT22;3894;49.700;10.770;2022-11-18T06:37:59;7.40;99.90
7704;DHT22;3894;49.700;10.770;2022-11-18T06:40:25;7.40;99.90
7704;DHT22;3894;49.700;10.770;2022-11-18T06:42:51;7.40;99.90
7704;DHT22;3894;49.700;10.770;2022-11-18T06:45:35;7.40;99.90
7704;DHT22;3894;49.700;10.770;2022-11-18T06:48:00;7.40;99.90
7704;DHT22;3894;49.700;10.770;2022-11-18T06:50:27;7.40;99.90
7704;DHT22;3894;49.700;10.770;2022-11-18T06:52:53;7.40;99.90
7704;DHT22;3894;49.700;10.770;2022-11-18T06:55:18;7.40;99.90
7704;DHT22;3894;49.700;10.770;2022-11-18T06:57:44;7.40;99.90
7704;DHT22;3894;49.700;10.770;2022-11-18T07:00:10;7.40;99.90
7704;DHT22;3894;49.700;10.770;2022-11-18T07:02:36;7.40;99.90
7704;DHT22;3894;49.700;10.770;2022-11-18T07:05:03;7.40;99.90
7704;DHT22;3894;49.700;10.770;2022-11-18T07:07:28;7.50;99.90
7704;DHT22;3894;49.700;10.770;2022-11-18T07:09:54;7.50;99.90
7704;DHT22;3894;49.700;10.770;2022-11-18T07:12:19;7.50;99.90
7704;DHT22;3894;49.700;10.770;2022-11-18T07:14:45;7.50;99.90
7704;DHT22;3894;49.700;10.770;2022-11-18T07:17:11;7.50;99.90
7704;DHT22;3894;49.700;10.770;2022-11-18T07:19:38;7.50;99.90
7704;DHT22;3894;49.700;10.770;2022-11-18T07:22:03;7.60;99.90
7704;DHT22;3894;49.700;10.770;2022-11-18T07:24:29;7.60;99.90
7704;DHT22;3894;49.700;10.770;2022-11-18T07:26:54;7.50;99.90
7704;DHT22;3894;49.700;10.770;2022-11-18T07:29:20;7.60;99.90
7704;DHT22;3894;49.700;10.770;2022-11-18T07:31:45;7.60;99.90
7704;DHT22;3894;49.700;10.770;2022-11-18T07:34:11;7.60;99.90
7704;DHT22;3894;49.700;10.770;2022-11-18T07:36:37;7.60;99.90
7704;DHT22;3894;49.700;10.770;2022-11-18T07:39:05;7.60;99.90
7704;DHT22;3894;49.700;10.770;2022-11-18T07:41:31;7.60;99.90
7704;DHT22;3894;49.700;10.770;2022-11-18T07:43:58;7.60;99.90
7704;DHT22;3894;49.700;10.770;2022-11-18T07:46:26;7.60;99.90
7704;DHT22;3894;49.700;10.770;2022-11-18T07:48:53;7.60;99.90
7704;DHT22;3894;49.700;10.770;2022-11-18T07:51:22;7.60;99.90
7704;DHT22;3894;49.700;10.770;2022-11-18T07:53:47;7.60;99.90
7704;DHT22;3894;49.700;10.770;2022-11-18T07:56:13;7.60;99.90
7704;DHT22;3894;49.700;10.770;2022-11-18T07:58:40;7.60;99.90
7704;DHT22;3894;49.700;10.770;2022-11-18T08:01:07;7.60;99.90
7704;DHT22;3894;49.700;10.770;2022-11-18T08:03:33;7.60;99.90
7704;DHT22;3894;49.700;10.770;2022-11-18T08:06:01;7.60;99.90
7704;DHT22;3894;49.700;10.770;2022-11-18T08:08:26;7.60;99.90
7704;DHT22;3894;49.700;10.770;2022-11-18T08:10:57;7.60;99.90
7704;DHT22;3894;49.700;10.770;2022-11-18T08:13:23;7.60;99.90
7704;DHT22;3894;49.700;10.770;2022-11-18T08:15:49;7.60;99.90
7704;DHT22;3894;49.700;10.770;2022-11-18T08:18:15;7.60;99.90
7704;DHT22;3894;49.700;10.770;2022-11-18T08:20:40;7.60;99.90
7704;DHT22;3894;49.700;10.770;2022-11-18T08:23:06;7.60;99.90
7704;DHT22;3894;49.700;10.770;2022-11-18T08:25:31;7.60;99.90
7704;DHT22;3894;49.700;10.770;2022-11-18T08:27:57;7.60;99.90
7704;DHT22;3894;49.700;10.770;2022-11-18T08:30:23;7.60;99.90
7704;DHT22;3894;49.700;10.770;2022-11-18T08:32:48;7.60;99.90
7704;DHT22;3894;49.700;10.770;2022-11-18T08:35:14;7.60;99.90
7704;DHT22;3894;49.700;10.770;2022-11-18T08:37:40;7.60;99.90
7704;DHT22;3894;49.700;10.770;2022-11-18T08:40:05;7.60;99.90
7704;DHT22;3894;49.700;10.770;2022-11-18T08:42:31;7.60;99.90
7704;DHT22;3894;49.700;10.770;2022-11-18T08:44:57;7.60;99.90
7704;DHT22;3894;49.700;10.770;2022-11-18T08:47:23;7.70;99.90
7704;DHT22;3894;49.700;10.770;2022-11-18T08:49:48;7.60;99.90
7704;DHT22;3894;49.700;10.770;2022-11-18T08:52:14;7.60;99.90
7704;DHT22;3894;49.700;10.770;2022-11-18T08:54:40;7.60;99.90
7704;DHT22;3894;49.700;10.770;2022-11-18T08:57:05;7.60;99.90
7704;DHT22;3894;49.700;10.770;2022-11-18T08:59:31;7.60;99.90
7704;DHT22;3894;49.700;10.770;2022-11-18T09:01:57;7.60;99.90
7704;DHT22;3894;49.700;10.770;2022-11-18T09:04:22;7.60;99.90
7704;DHT22;3894;49.700;10.770;2022-11-18T09:06:48;7.60;99.90
7704;DHT22;3894;49.700;10.770;2022-11-18T09:09:14;7.70;99.90
7704;DHT22;3894;49.700;10.770;2022-11-18T09:11:40;7.60;99.90
7704;DHT22;3894;49.700;10.770;2022-11-18T09:14:09;7.70;99.90
7704;DHT22;3894;49.700;10.770;2022-11-18T09:16:35;7.70;99.90
7704;DHT22;3894;49.700;10.770;2022-11-18T09:19:01;7.70;99.90
7704;DHT22;3894;49.700;10.770;2022-11-18T09:21:26;7.70;99.90
7704;DHT22;3894;49.700;10.770;2022-11-18T09:23:52;7.70;99.90
7704;DHT22;3894;49.700;10.770;2022-11-18T09:26:20;7.70;99.90
7704;DHT22;3894;49.700;10.770;2022-11-18T09:28:48;7.70;99.90
7704;DHT22;3894;49.700;10.770;2022-11-18T09:31:15;7.70;99.90
7704;DHT22;3894;49.700;10.770;2022-11-18T09:33:42;7.70;99.90
7704;DHT22;3894;49.700;10.770;2022-11-18T09:36:22;7.70;99.90
7704;DHT22;3894;49.700;10.770;2022-11-18T09:38:48;7.70;99.90
7704;DHT22;3894;49.700;10.770;2022-11-18T09:44:00;7.70;99.90
7704;DHT22;3894;49.700;10.770;2022-11-18T09:49:06;7.70;99.90
7704;DHT22;3894;49.700;10.770;2022-11-18T09:51:49;7.70;99.90
7704;DHT22;3894;49.700;10.770;2022-11-18T09:54:20;7.70;99.90
7704;DHT22;3894;49.700;10.770;2022-11-18T09:56:47;7.80;99.90
7704;DHT22;3894;49.700;10.770;2022-11-18T09:59:17;7.70;99.90
7704;DHT22;3894;49.700;10.770;2022-11-18T10:01:44;7.70;99.90
7704;DHT22;3894;49.700;10.770;2022-11-18T10:04:18;7.80;99.90
7704;DHT22;3894;49.700;10.770;2022-11-18T10:06:45;7.80;99.90
7704;DHT22;3894;49.700;10.770;2022-11-18T10:09:40;7.70;99.90
7704;DHT22;3894;49.700;10.770;2022-11-18T10:17:46;7.70;99.90
7704;DHT22;3894;49.700;10.770;2022-11-18T10:23:10;7.70;99.90
7704;DHT22;3894;49.700;10.770;2022-11-18T10:25:37;7.70;99.90
7704;DHT22;3894;49.700;10.770;2022-11-18T10:28:29;7.80;99.90
7704;DHT22;3894;49.700;10.770;2022-11-18T10:31:09;7.80;99.90
7704;DHT22;3894;49.700;10.770;2022-11-18T10:33:35;7.80;99.90
7704;DHT22;3894;49.700;10.770;2022-11-18T10:38:35;7.90;99.90
7704;DHT22;3894;49.700;10.770;2022-11-18T10:41:04;7.90;99.90
7704;DHT22;3894;49.700;10.770;2022-11-18T10:43:54;8.00;99.90
7704;DHT22;3894;49.700;10.770;2022-11-18T10:46:30;8.10;99.90
7704;DHT22;3894;49.700;10.770;2022-11-18T10:49:15;8.10;99.90
7704;DHT22;3894;49.700;10.770;2022-11-18T10:52:10;8.20;99.90
7704;DHT22;3894;49.700;10.770;2022-11-18T10:54:36;8.20;99.90
7704;DHT22;3894;49.700;10.770;2022-11-18T10:57:23;8.30;99.90
7704;DHT22;3894;49.700;10.770;2022-11-18T10:59:56;8.30;99.90
7704;DHT22;3894;49.700;10.770;2022-11-18T11:02:32;8.30;99.90
7704;DHT22;3894;49.700;10.770;2022-11-18T11:05:01;8.40;99.90
7704;DHT22;3894;49.700;10.770;2022-11-18T11:07:35;8.40;99.90
7704;DHT22;3894;49.700;10.770;2022-11-18T11:12:43;8.30;99.90
7704;DHT22;3894;49.700;10.770;2022-11-18T11:15:12;8.30;99.90
7704;DHT22;3894;49.700;10.770;2022-11-18T11:17:49;8.30;99.90
7704;DHT22;3894;49.700;10.770;2022-11-18T11:20:36;8.20;99.90
7704;DHT22;3894;49.700;10.770;2022-11-18T11:23:10;8.20;99.90
7704;DHT22;3894;49.700;10.770;2022-11-18T11:25:55;8.10;99.90
7704;DHT22;3894;49.700;10.770;2022-11-18T11:28:38;8.20;99.90
7704;DHT22;3894;49.700;10.770;2022-11-18T11:34:18;8.10;99.90
7704;DHT22;3894;49.700;10.770;2022-11-18T11:42:19;8.20;99.90
7704;DHT22;3894;49.700;10.770;2022-11-18T11:56:29;8.20;99.90
7704;DHT22;3894;49.700;10.770;2022-11-18T12:04:49;8.20;99.90
7704;DHT22;3894;49.700;10.770;2022-11-18T12:07:19;8.20;99.90
7704;DHT22;3894;49.700;10.770;2022-11-18T12:10:08;8.20;99.90
7704;DHT22;3894;49.700;10.770;2022-11-18T12:12:48;8.30;99.90
7704;DHT22;3894;49.700;10.770;2022-11-18T12:15:37;8.30;99.90
7704;DHT22;3894;49.700;10.770;2022-11-18T12:18:25;8.40;99.90
7704;DHT22;3894;49.700;10.770;2022-11-18T12:20:54;8.40;99.90
7704;DHT22;3894;49.700;10.770;2022-11-18T12:23:25;8.40;99.90
7704;DHT22;3894;49.700;10.770;2022-11-18T12:26:03;8.40;99.90
7704;DHT22;3894;49.700;10.770;2022-11-18T12:36:08;8.40;99.90
7704;DHT22;3894;49.700;10.770;2022-11-18T12:38:34;8.40;99.90
7704;DHT22;3894;49.700;10.770;2022-11-18T12:40:59;8.40;99.90
7704;DHT22;3894;49.700;10.770;2022-11-18T12:44:04;8.50;99.90
7704;DHT22;3894;49.700;10.770;2022-11-18T12:51:46;8.50;99.90
7704;DHT22;3894;49.700;10.770;2022-11-18T12:54:36;8.50;99.90
7704;DHT22;3894;49.700;10.770;2022-11-18T12:57:32;8.50;99.90
7704;DHT22;3894;49.700;10.770;2022-11-18T13:00:14;8.50;99.90
7704;DHT22;3894;49.700;10.770;2022-11-18T13:02:50;8.50;99.90
7704;DHT22;3894;49.700;10.770;2022-11-18T13:05:21;8.50;99.90
7704;DHT22;3894;49.700;10.770;2022-11-18T13:07:53;8.50;99.90
7704;DHT22;3894;49.700;10.770;2022-11-18T13:13:20;8.60;99.90
7704;DHT22;3894;49.700;10.770;2022-11-18T13:15:46;8.60;99.90
7704;DHT22;3894;49.700;10.770;2022-11-18T13:18:30;8.70;99.90
7704;DHT22;3894;49.700;10.770;2022-11-18T13:20:58;8.70;99.90
7704;DHT22;3894;49.700;10.770;2022-11-18T13:23:44;8.70;99.90
7704;DHT22;3894;49.700;10.770;2022-11-18T13:31:39;8.60;99.90
7704;DHT22;3894;49.700;10.770;2022-11-18T13:34:25;8.60;99.90
7704;DHT22;3894;49.700;10.770;2022-11-18T13:36:53;8.60;99.90
7704;DHT22;3894;49.700;10.770;2022-11-18T13:39:31;8.50;99.90
7704;DHT22;3894;49.700;10.770;2022-11-18T13:42:18;8.50;99.90
7704;DHT22;3894;49.700;10.770;2022-11-18T13:44:53;8.50;99.90
7704;DHT22;3894;49.700;10.770;2022-11-18T13:47:57;8.50;99.90
7704;DHT22;3894;49.700;10.770;2022-11-18T13:50:37;8.50;99.90
7704;DHT22;3894;49.700;10.770;2022-11-18T13:53:17;8.50;99.90
7704;DHT22;3894;49.700;10.770;2022-11-18T13:55:58;8.50;99.90
7704;DHT22;3894;49.700;10.770;2022-11-18T13:58:58;8.40;99.90
7704;DHT22;3894;49.700;10.770;2022-11-18T14:01:30;8.40;99.90
7704;DHT22;3894;49.700;10.770;2022-11-18T14:06:36;8.40;99.90
7704;DHT22;3894;49.700;10.770;2022-11-18T14:09:24;8.40;99.90
7704;DHT22;3894;49.700;10.770;2022-11-18T14:14:37;8.40;99.90
7704;DHT22;3894;49.700;10.770;2022-11-18T14:17:21;8.40;99.90
7704;DHT22;3894;49.700;10.770;2022-11-18T14:19:58;8.40;99.90
7704;DHT22;3894;49.700;10.770;2022-11-18T14:22:30;8.30;99.90
7704;DHT22;3894;49.700;10.770;2022-11-18T14:24:59;8.30;99.90
7704;DHT22;3894;49.700;10.770;2022-11-18T14:27:46;8.30;99.90
7704;DHT22;3894;49.700;10.770;2022-11-18T14:35:31;8.20;99.90
7704;DHT22;3894;49.700;10.770;2022-11-18T14:37:57;8.20;99.90
7704;DHT22;3894;49.700;10.770;2022-11-18T14:40:22;8.20;99.90
7704;DHT22;3894;49.700;10.770;2022-11-18T14:42:48;8.20;99.90
7704;DHT22;3894;49.700;10.770;2022-11-18T14:45:14;8.20;99.90
7704;DHT22;3894;49.700;10.770;2022-11-18T14:47:39;8.20;99.90
7704;DHT22;3894;49.700;10.770;2022-11-18T14:50:11;8.20;99.90
7704;DHT22;3894;49.700;10.770;2022-11-18T14:52:37;8.20;99.90
7704;DHT22;3894;49.700;10.770;2022-11-18T14:55:03;8.10;99.90
7704;DHT22;3894;49.700;10.770;2022-11-18T14:57:28;8.10;99.90
7704;DHT22;3894;49.700;10.770;2022-11-18T14:59:54;8.10;99.90
7704;DHT22;3894;49.700;10.770;2022-11-18T15:02:20;8.10;99.90
7704;DHT22;3894;49.700;10.770;2022-11-18T15:04:45;8.10;99.90
7704;DHT22;3894;49.700;10.770;2022-11-18T15:07:12;8.10;99.90
7704;DHT22;3894;49.700;10.770;2022-11-18T15:09:41;8.10;99.90
7704;DHT22;3894;49.700;10.770;2022-11-18T15:12:07;8.10;99.90
7704;DHT22;3894;49.700;10.770;2022-11-18T15:14:33;8.00;99.90
7704;DHT22;3894;49.700;10.770;2022-11-18T15:17:02;8.00;99.90
7704;DHT22;3894;49.700;10.770;2022-11-18T15:19:28;8.10;99.90
7704;DHT22;3894;49.700;10.770;2022-11-18T15:21:54;8.00;99.90
7704;DHT22;3894;49.700;10.770;2022-11-18T15:24:20;8.00;99.90
7704;DHT22;3894;49.700;10.770;2022-11-18T15:26:46;8.00;99.90
7704;DHT22;3894;49.700;10.770;2022-11-18T15:29:17;8.00;99.90
7704;DHT22;3894;49.700;10.770;2022-11-18T15:31:43;8.00;99.90
7704;DHT22;3894;49.700;10.770;2022-11-18T15:34:09;7.90;99.90
7704;DHT22;3894;49.700;10.770;2022-11-18T15:36:34;7.90;99.90
7704;DHT22;3894;49.700;10.770;2022-11-18T15:39:00;7.90;99.90
7704;DHT22;3894;49.700;10.770;2022-11-18T15:41:28;7.90;99.90
7704;DHT22;3894;49.700;10.770;2022-11-18T15:43:55;7.90;99.90
7704;DHT22;3894;49.700;10.770;2022-11-18T15:46:23;7.90;99.90
7704;DHT22;3894;49.700;10.770;2022-11-18T15:48:53;7.80;99.90
7704;DHT22;3894;49.700;10.770;2022-11-18T15:51:19;7.80;99.90
7704;DHT22;3894;49.700;10.770;2022-11-18T15:53:45;7.90;99.90
7704;DHT22;3894;49.700;10.770;2022-11-18T15:58:44;7.80;99.90
7704;DHT22;3894;49.700;10.770;2022-11-18T16:01:10;7.80;99.90
7704;DHT22;3894;49.700;10.770;2022-11-18T16:03:36;7.80;99.90
7704;DHT22;3894;49.700;10.770;2022-11-18T16:06:02;7.90;99.90
7704;DHT22;3894;49.700;10.770;2022-11-18T16:08:29;7.90;99.90
7704;DHT22;3894;49.700;10.770;2022-11-18T16:10:55;7.80;99.90
7704;DHT22;3894;49.700;10.770;2022-11-18T16:13:40;7.80;99.90
7704;DHT22;3894;49.700;10.770;2022-11-18T16:16:06;7.80;99.90
7704;DHT22;3894;49.700;10.770;2022-11-18T16:18:31;7.80;99.90
7704;DHT22;3894;49.700;10.770;2022-11-18T16:20:58;7.80;99.90
7704;DHT22;3894;49.700;10.770;2022-11-18T16:23:24;7.80;99.90
7704;DHT22;3894;49.700;10.770;2022-11-18T16:25:49;7.80;99.90
7704;DHT22;3894;49.700;10.770;2022-11-18T16:28:15;7.90;99.90
7704;DHT22;3894;49.700;10.770;2022-11-18T16:30:49;7.90;99.90
7704;DHT22;3894;49.700;10.770;2022-11-18T16:33:33;7.90;99.90
7704;DHT22;3894;49.700;10.770;2022-11-18T16:35:59;7.90;99.90
7704;DHT22;3894;49.700;10.770;2022-11-18T16:38:25;7.90;99.90
7704;DHT22;3894;49.700;10.770;2022-11-18T16:40:57;7.90;99.90
7704;DHT22;3894;49.700;10.770;2022-11-18T16:43:23;7.90;99.90
7704;DHT22;3894;49.700;10.770;2022-11-18T16:45:53;7.90;99.90
7704;DHT22;3894;49.700;10.770;2022-11-18T16:48:20;7.80;99.90
7704;DHT22;3894;49.700;10.770;2022-11-18T16:51:04;7.90;99.90
7704;DHT22;3894;49.700;10.770;2022-11-18T16:53:42;7.90;99.90
7704;DHT22;3894;49.700;10.770;2022-11-18T16:56:07;7.90;99.90
7704;DHT22;3894;49.700;10.770;2022-11-18T16:58:33;7.90;99.90
7704;DHT22;3894;49.700;10.770;2022-11-18T17:03:41;7.90;99.90
7704;DHT22;3894;49.700;10.770;2022-11-18T17:06:07;7.90;99.90
7704;DHT22;3894;49.700;10.770;2022-11-18T17:08:34;7.90;99.90
7704;DHT22;3894;49.700;10.770;2022-11-18T17:11:07;7.90;99.90
7704;DHT22;3894;49.700;10.770;2022-11-18T17:13:33;7.90;99.90
7704;DHT22;3894;49.700;10.770;2022-11-18T17:16:03;7.90;99.90
7704;DHT22;3894;49.700;10.770;2022-11-18T17:18:29;7.90;99.90
7704;DHT22;3894;49.700;10.770;2022-11-18T17:20:54;7.90;99.90
7704;DHT22;3894;49.700;10.770;2022-11-18T17:23:20;7.90;99.90
7704;DHT22;3894;49.700;10.770;2022-11-18T17:25:45;7.90;99.90
7704;DHT22;3894;49.700;10.770;2022-11-18T17:28:11;7.90;99.90
7704;DHT22;3894;49.700;10.770;2022-11-18T17:30:36;7.80;99.90
7704;DHT22;3894;49.700;10.770;2022-11-18T17:33:02;7.80;99.90
7704;DHT22;3894;49.700;10.770;2022-11-18T17:35:27;7.80;99.90
7704;DHT22;3894;49.700;10.770;2022-11-18T17:37:53;7.80;99.90
7704;DHT22;3894;49.700;10.770;2022-11-18T17:40:18;7.80;99.90
7704;DHT22;3894;49.700;10.770;2022-11-18T17:42:44;7.80;99.90
7704;DHT22;3894;49.700;10.770;2022-11-18T17:45:10;7.80;99.90
7704;DHT22;3894;49.700;10.770;2022-11-18T17:47:35;7.80;99.90
7704;DHT22;3894;49.700;10.770;2022-11-18T17:50:01;7.80;99.90
7704;DHT22;3894;49.700;10.770;2022-11-18T17:52:26;7.80;99.90
7704;DHT22;3894;49.700;10.770;2022-11-18T17:54:52;7.80;99.90
7704;DHT22;3894;49.700;10.770;2022-11-18T17:57:17;7.70;99.90
7704;DHT22;3894;49.700;10.770;2022-11-18T17:59:43;7.60;99.90
7704;DHT22;3894;49.700;10.770;2022-11-18T18:02:11;7.60;99.90